sensor_id;sensor_type;location;lat;lon;timestamp;pressure;altitude;pressure_sealevel;temperature;humidity
78094;BME280;67327;37.152;-76.406;2023-04-01T00:01:36;101974.03;;;44.19;9.72
78094;BME280;67327;37.152;-76.406;2023-04-01T00:04:05;101981.47;;;44.19;9.72
78094;BME280;67327;37.152;-76.406;2023-04-01T00:06:29;101980.76;;;44.15;9.74
78094;BME280;67327;37.152;-76.406;2023-04-01T00:08:51;101963.98;;;43.89;9.74
78094;BME280;67327;37.152;-76.406;2023-04-01T00:11:19;101973.71;;;44.12;9.73
78094;BME280;67327;37.152;-76.406;2023-04-01T00:13:43;101976.06;;;44.11;9.77
78094;BME280;67327;37.152;-76.406;2023-04-01T00:16:13;101986.23;;;44.10;9.76
78094;BME280;67327;37.152;-76.406;2023-04-01T00:18:32;102002.43;;;44.10;9.77
78094;BME280;67327;37.152;-76.406;2023-04-01T00:20:57;102003.19;;;44.10;9.77
78094;BME280;67327;37.152;-76.406;2023-04-01T00:23:23;102001.02;;;44.08;9.78
78094;BME280;67327;37.152;-76.406;2023-04-01T00:25:53;101999.90;;;44.05;9.79
78094;BME280;67327;37.152;-76.406;2023-04-01T00:28:13;101997.93;;;44.04;9.77
78094;BME280;67327;37.152;-76.406;2023-04-01T00:30:38;101990.63;;;44.03;9.76
78094;BME280;67327;37.152;-76.406;2023-04-01T00:33:03;101980.30;;;44.02;9.76
78094;BME280;67327;37.152;-76.406;2023-04-01T00:35:29;101976.82;;;43.77;9.77
78094;BME280;67327;37.152;-76.406;2023-04-01T00:37:59;101973.55;;;44.00;9.81
78094;BME280;67327;37.152;-76.406;2023-04-01T00:40:25;101970.46;;;44.00;9.76
78094;BME280;67327;37.152;-76.406;2023-04-01T00:42:46;101964.09;;;44.00;9.76
78094;BME280;67327;37.152;-76.406;2023-04-01T00:45:27;101953.60;;;44.00;9.74
78094;BME280;67327;37.152;-76.406;2023-04-01T00:47:33;101946.79;;;44.01;9.75
78094;BME280;67327;37.152;-76.406;2023-04-01T00:50:04;101951.68;;;44.01;9.73
78094;BME280;67327;37.152;-76.406;2023-04-01T00:52:27;101945.91;;;44.23;9.73
78094;BME280;67327;37.152;-76.406;2023-04-01T00:54:52;101952.22;;;44.00;9.73
78094;BME280;67327;37.152;-76.406;2023-04-01T00:57:17;101949.82;;;43.99;9.71
78094;BME280;67327;37.152;-76.406;2023-04-01T00:59:43;101933.73;;;43.97;9.71
78094;BME280;67327;37.152;-76.406;2023-04-01T01:02:08;101935.62;;;43.98;9.71
78094;BME280;67327;37.152;-76.406;2023-04-01T01:04:30;101928.85;;;44.00;9.71
78094;BME280;67327;37.152;-76.406;2023-04-01T01:07:02;101926.94;;;44.00;9.69
78094;BME280;67327;37.152;-76.406;2023-04-01T01:09:29;101925.78;;;43.99;9.71
78094;BME280;67327;37.152;-76.406;2023-04-01T01:11:49;101921.66;;;43.98;9.68
78094;BME280;67327;37.152;-76.406;2023-04-01T01:14:19;101922.52;;;43.98;9.71
78094;BME280;67327;37.152;-76.406;2023-04-01T01:16:39;101924.04;;;43.99;9.71
78094;BME280;67327;37.152;-76.406;2023-04-01T01:19:07;101927.92;;;44.00;9.71
78094;BME280;67327;37.152;-76.406;2023-04-01T01:21:34;101930.12;;;44.00;9.71
78094;BME280;67327;37.152;-76.406;2023-04-01T01:24:08;101923.18;;;44.03;9.70
78094;BME280;67327;37.152;-76.406;2023-04-01T01:28:47;101934.51;;;43.86;9.68
78094;BME280;67327;37.152;-76.406;2023-04-01T01:31:11;101933.59;;;44.13;9.67
78094;BME280;67327;37.152;-76.406;2023-04-01T01:33:42;101930.16;;;43.90;9.67
78094;BME280;67327;37.152;-76.406;2023-04-01T01:35:57;101925.40;;;43.91;9.67
78094;BME280;67327;37.152;-76.406;2023-04-01T01:38:23;101925.42;;;44.16;9.66
78094;BME280;67327;37.152;-76.406;2023-04-01T01:40:50;101928.63;;;44.15;9.66
78094;BME280;67327;37.152;-76.406;2023-04-01T01:43:15;101927.25;;;44.16;9.65
78094;BME280;67327;37.152;-76.406;2023-04-01T01:45:39;101924.71;;;44.16;9.65
78094;BME280;67327;37.152;-76.406;2023-04-01T01:48:03;101920.44;;;44.18;9.65
78094;BME280;67327;37.152;-76.406;2023-04-01T01:50:32;101908.03;;;44.21;9.63
78094;BME280;67327;37.152;-76.406;2023-04-01T01:55:27;101882.64;;;44.22;9.61
78094;BME280;67327;37.152;-76.406;2023-04-01T01:57:42;101877.98;;;44.01;9.60
78094;BME280;67327;37.152;-76.406;2023-04-01T02:00:09;101872.17;;;44.02;9.57
78094;BME280;67327;37.152;-76.406;2023-04-01T02:02:32;101862.60;;;44.26;9.57
78094;BME280;67327;37.152;-76.406;2023-04-01T02:04:58;101860.70;;;44.23;9.58
78094;BME280;67327;37.152;-76.406;2023-04-01T02:07:25;101852.32;;;44.20;9.58
78094;BME280;67327;37.152;-76.406;2023-04-01T02:09:48;101843.71;;;44.18;9.59
78094;BME280;67327;37.152;-76.406;2023-04-01T02:12:15;101837.70;;;43.91;9.58
78094;BME280;67327;37.152;-76.406;2023-04-01T02:14:41;101829.31;;;44.11;9.60
78094;BME280;67327;37.152;-76.406;2023-04-01T02:17:05;101821.64;;;44.08;9.60
78094;BME280;67327;37.152;-76.406;2023-04-01T02:19:32;101826.33;;;44.09;9.58
78094;BME280;67327;37.152;-76.406;2023-04-01T02:21:55;101816.17;;;44.10;9.59
78094;BME280;67327;37.152;-76.406;2023-04-01T02:24:19;101809.91;;;44.08;9.57
78094;BME280;67327;37.152;-76.406;2023-04-01T02:26:44;101793.48;;;44.07;9.57
78094;BME280;67327;37.152;-76.406;2023-04-01T02:29:09;101783.15;;;44.05;9.55
78094;BME280;67327;37.152;-76.406;2023-04-01T02:31:39;101774.92;;;44.03;9.55
78094;BME280;67327;37.152;-76.406;2023-04-01T02:33:59;101772.67;;;43.79;9.52
78094;BME280;67327;37.152;-76.406;2023-04-01T02:36:23;101763.37;;;43.78;9.53
78094;BME280;67327;37.152;-76.406;2023-04-01T02:38:50;101743.71;;;44.01;9.51
78094;BME280;67327;37.152;-76.406;2023-04-01T02:41:14;101741.86;;;43.99;9.51
78094;BME280;67327;37.152;-76.406;2023-04-01T02:43:40;101753.14;;;43.98;9.51
78094;BME280;67327;37.152;-76.406;2023-04-01T02:46:08;101761.10;;;44.00;9.49
78094;BME280;67327;37.152;-76.406;2023-04-01T02:48:29;101766.31;;;43.54;9.46
78094;BME280;67327;37.152;-76.406;2023-04-01T02:50:55;101773.40;;;44.03;9.46
78094;BME280;67327;37.152;-76.406;2023-04-01T02:53:24;101757.48;;;43.80;9.45
78094;BME280;67327;37.152;-76.406;2023-04-01T02:55:44;101746.04;;;43.80;9.41
78094;BME280;67327;37.152;-76.406;2023-04-01T02:58:09;101745.40;;;43.78;9.44
78094;BME280;67327;37.152;-76.406;2023-04-01T03:00:36;101745.84;;;44.00;9.44
78094;BME280;67327;37.152;-76.406;2023-04-01T03:03:00;101740.63;;;43.98;9.43
78094;BME280;67327;37.152;-76.406;2023-04-01T03:05:25;101740.68;;;43.98;9.43
78094;BME280;67327;37.152;-76.406;2023-04-01T03:07:49;101730.61;;;43.96;9.42
78094;BME280;67327;37.152;-76.406;2023-04-01T03:10:14;101724.96;;;43.93;9.44
78094;BME280;67327;37.152;-76.406;2023-04-01T03:12:40;101711.57;;;43.91;9.42
78094;BME280;67327;37.152;-76.406;2023-04-01T03:15:05;101702.77;;;44.10;9.45
78094;BME280;67327;37.152;-76.406;2023-04-01T03:17:35;101697.76;;;43.79;9.47
78094;BME280;67327;37.152;-76.406;2023-04-01T03:19:55;101689.78;;;43.73;9.48
78094;BME280;67327;37.152;-76.406;2023-04-01T03:22:19;101685.65;;;43.69;9.49
78094;BME280;67327;37.152;-76.406;2023-04-01T03:24:45;101681.01;;;43.67;9.49
78094;BME280;67327;37.152;-76.406;2023-04-01T03:27:10;101675.36;;;43.64;9.50
78094;BME280;67327;37.152;-76.406;2023-04-01T03:29:35;101666.57;;;43.83;9.52
78094;BME280;67327;37.152;-76.406;2023-04-01T03:32:00;101656.65;;;43.56;9.53
78094;BME280;67327;37.152;-76.406;2023-04-01T03:34:25;101644.10;;;43.55;9.54
78094;BME280;67327;37.152;-76.406;2023-04-01T03:36:51;101643.15;;;43.59;9.52
78094;BME280;67327;37.152;-76.406;2023-04-01T03:39:15;101632.69;;;43.60;9.52
78094;BME280;67327;37.152;-76.406;2023-04-01T03:41:41;101629.75;;;43.60;9.55
78094;BME280;67327;37.152;-76.406;2023-04-01T03:44:06;101620.76;;;43.58;9.55
78094;BME280;67327;37.152;-76.406;2023-04-01T03:46:30;101608.69;;;43.57;9.55
78094;BME280;67327;37.152;-76.406;2023-04-01T03:48:56;101607.29;;;43.54;9.55
78094;BME280;67327;37.152;-76.406;2023-04-01T03:51:21;101599.16;;;43.51;9.54
78094;BME280;67327;37.152;-76.406;2023-04-01T03:53:46;101597.93;;;43.48;9.58
78094;BME280;67327;37.152;-76.406;2023-04-01T03:56:11;101585.03;;;43.46;9.59
78094;BME280;67327;37.152;-76.406;2023-04-01T03:58:37;101585.82;;;43.44;9.59
78094;BME280;67327;37.152;-76.406;2023-04-01T04:01:02;101584.87;;;43.40;9.61
78094;BME280;67327;37.152;-76.406;2023-04-01T04:03:26;101584.00;;;43.38;9.63
78094;BME280;67327;37.152;-76.406;2023-04-01T04:05:52;101583.84;;;43.39;9.64
78094;BME280;67327;37.152;-76.406;2023-04-01T04:08:17;101582.63;;;43.41;9.63
78094;BME280;67327;37.152;-76.406;2023-04-01T04:10:42;101571.86;;;43.41;9.60
78094;BME280;67327;37.152;-76.406;2023-04-01T04:13:07;101569.11;;;43.41;9.63
78094;BME280;67327;37.152;-76.406;2023-04-01T04:15:32;101580.10;;;43.34;9.66
78094;BME280;67327;37.152;-76.406;2023-04-01T04:17:59;101577.75;;;43.30;9.70
78094;BME280;67327;37.152;-76.406;2023-04-01T04:20:23;101573.37;;;43.29;9.69
78094;BME280;67327;37.152;-76.406;2023-04-01T04:22:47;101565.69;;;43.49;9.70
78094;BME280;67327;37.152;-76.406;2023-04-01T04:25:14;101564.32;;;43.23;9.69
78094;BME280;67327;37.152;-76.406;2023-04-01T04:27:38;101553.00;;;43.23;9.69
78094;BME280;67327;37.152;-76.406;2023-04-01T04:30:04;101548.93;;;43.20;9.67
78094;BME280;67327;37.152;-76.406;2023-04-01T04:32:28;101546.05;;;43.20;9.69
78094;BME280;67327;37.152;-76.406;2023-04-01T04:34:53;101546.36;;;43.19;9.73
78094;BME280;67327;37.152;-76.406;2023-04-01T04:37:18;101547.10;;;43.19;9.71
78094;BME280;67327;37.152;-76.406;2023-04-01T04:39:43;101544.32;;;43.20;9.69
78094;BME280;67327;37.152;-76.406;2023-04-01T04:42:08;101553.91;;;43.20;9.73
78094;BME280;67327;37.152;-76.406;2023-04-01T04:44:34;101552.33;;;43.18;9.74
78094;BME280;67327;37.152;-76.406;2023-04-01T04:46:59;101550.74;;;43.15;9.74
78094;BME280;67327;37.152;-76.406;2023-04-01T04:49:27;101556.17;;;43.41;9.74
78094;BME280;67327;37.152;-76.406;2023-04-01T04:51:49;101548.35;;;43.41;9.73
78094;BME280;67327;37.152;-76.406;2023-04-01T04:54:14;101545.04;;;43.16;9.73
78094;BME280;67327;37.152;-76.406;2023-04-01T04:56:39;101552.15;;;43.16;9.76
78094;BME280;67327;37.152;-76.406;2023-04-01T04:59:04;101546.06;;;43.40;9.76
78094;BME280;67327;37.152;-76.406;2023-04-01T05:01:30;101553.64;;;43.63;9.77
78094;BME280;67327;37.152;-76.406;2023-04-01T05:03:55;101541.22;;;43.38;9.80
78094;BME280;67327;37.152;-76.406;2023-04-01T05:06:19;101541.46;;;43.35;9.81
78094;BME280;67327;37.152;-76.406;2023-04-01T05:08:45;101532.08;;;43.10;9.81
78094;BME280;67327;37.152;-76.406;2023-04-01T05:11:13;101522.15;;;43.08;9.82
78094;BME280;67327;37.152;-76.406;2023-04-01T05:13:35;101523.03;;;43.30;9.84
78094;BME280;67327;37.152;-76.406;2023-04-01T05:16:00;101521.52;;;43.03;9.88
78094;BME280;67327;37.152;-76.406;2023-04-01T05:18:25;101523.62;;;43.27;9.88
78094;BME280;67327;37.152;-76.406;2023-04-01T05:20:52;101519.48;;;43.24;9.90
78094;BME280;67327;37.152;-76.406;2023-04-01T05:23:15;101505.65;;;43.22;9.91
78094;BME280;67327;37.152;-76.406;2023-04-01T05:25:40;101507.99;;;43.42;9.91
78094;BME280;67327;37.152;-76.406;2023-04-01T05:28:06;101513.08;;;43.17;9.95
78094;BME280;67327;37.152;-76.406;2023-04-01T05:30:30;101506.53;;;43.37;9.97
78094;BME280;67327;37.152;-76.406;2023-04-01T05:32:55;101511.06;;;43.09;9.97
78094;BME280;67327;37.152;-76.406;2023-04-01T05:35:21;101518.86;;;43.28;9.99
78094;BME280;67327;37.152;-76.406;2023-04-01T05:37:46;101526.18;;;43.26;10.00
78094;BME280;67327;37.152;-76.406;2023-04-01T05:40:11;101517.75;;;43.00;9.97
78094;BME280;67327;37.152;-76.406;2023-04-01T05:42:36;101509.02;;;43.25;9.99
78094;BME280;67327;37.152;-76.406;2023-04-01T05:45:01;101502.20;;;43.04;10.00
78094;BME280;67327;37.152;-76.406;2023-04-01T05:47:26;101508.65;;;42.79;10.00
78094;BME280;67327;37.152;-76.406;2023-04-01T05:49:51;101503.44;;;43.30;9.99
78094;BME280;67327;37.152;-76.406;2023-04-01T05:52:17;101500.15;;;43.08;9.98
78094;BME280;67327;37.152;-76.406;2023-04-01T05:54:41;101496.61;;;43.32;9.99
78094;BME280;67327;37.152;-76.406;2023-04-01T05:57:07;101488.22;;;43.11;9.98
78094;BME280;67327;37.152;-76.406;2023-04-01T05:59:32;101480.21;;;42.87;9.97
78094;BME280;67327;37.152;-76.406;2023-04-01T06:01:57;101485.11;;;43.10;9.97
78094;BME280;67327;37.152;-76.406;2023-04-01T06:04:22;101478.87;;;42.84;9.99
78094;BME280;67327;37.152;-76.406;2023-04-01T06:06:47;101464.66;;;43.30;10.01
78094;BME280;67327;37.152;-76.406;2023-04-01T06:09:14;101461.36;;;43.24;10.07
78094;BME280;67327;37.152;-76.406;2023-04-01T06:11:46;101459.40;;;43.01;10.04
78094;BME280;67327;37.152;-76.406;2023-04-01T06:14:13;101449.01;;;42.80;10.02
78094;BME280;67327;37.152;-76.406;2023-04-01T06:16:34;101435.12;;;42.83;10.00
78094;BME280;67327;37.152;-76.406;2023-04-01T06:19:08;101425.67;;;43.30;9.98
78094;BME280;67327;37.152;-76.406;2023-04-01T06:21:32;101415.83;;;42.80;9.98
78094;BME280;67327;37.152;-76.406;2023-04-01T06:23:51;101415.92;;;43.06;10.00
78094;BME280;67327;37.152;-76.406;2023-04-01T06:26:17;101407.33;;;43.06;10.00
78094;BME280;67327;37.152;-76.406;2023-04-01T06:28:48;101400.29;;;43.04;9.99
78094;BME280;67327;37.152;-76.406;2023-04-01T06:31:02;101387.81;;;42.81;10.00
78094;BME280;67327;37.152;-76.406;2023-04-01T06:33:36;101400.41;;;42.80;9.99
78094;BME280;67327;37.152;-76.406;2023-04-01T06:36:06;101386.84;;;43.26;10.00
78094;BME280;67327;37.152;-76.406;2023-04-01T06:38:25;101384.65;;;43.27;9.99
78094;BME280;67327;37.152;-76.406;2023-04-01T06:40:53;101379.87;;;42.78;9.98
78094;BME280;67327;37.152;-76.406;2023-04-01T06:43:11;101389.69;;;43.03;9.96
78094;BME280;67327;37.152;-76.406;2023-04-01T06:45:35;101377.83;;;43.00;9.99
78094;BME280;67327;37.152;-76.406;2023-04-01T06:48:04;101373.09;;;43.23;9.99
78094;BME280;67327;37.152;-76.406;2023-04-01T06:50:24;101373.39;;;43.23;10.01
78094;BME280;67327;37.152;-76.406;2023-04-01T06:52:50;101368.87;;;43.23;10.00
78094;BME280;67327;37.152;-76.406;2023-04-01T06:55:23;101361.66;;;42.76;10.00
78094;BME280;67327;37.152;-76.406;2023-04-01T06:57:38;101363.34;;;42.75;9.98
78094;BME280;67327;37.152;-76.406;2023-04-01T07:00:01;101365.75;;;43.24;9.96
78094;BME280;67327;37.152;-76.406;2023-04-01T07:02:31;101355.21;;;42.98;9.96
78094;BME280;67327;37.152;-76.406;2023-04-01T07:04:52;101351.26;;;43.16;10.00
78094;BME280;67327;37.152;-76.406;2023-04-01T07:07:21;101344.15;;;42.87;10.00
78094;BME280;67327;37.152;-76.406;2023-04-01T07:09:43;101331.99;;;43.08;10.01
78094;BME280;67327;37.152;-76.406;2023-04-01T07:12:11;101320.76;;;43.06;10.03
78094;BME280;67327;37.152;-76.406;2023-04-01T07:14:33;101305.81;;;43.01;10.05
78094;BME280;67327;37.152;-76.406;2023-04-01T07:16:59;101291.63;;;43.02;10.04
78094;BME280;67327;37.152;-76.406;2023-04-01T07:19:30;101288.24;;;42.77;10.01
78094;BME280;67327;37.152;-76.406;2023-04-01T07:21:47;101281.17;;;43.02;10.00
78094;BME280;67327;37.152;-76.406;2023-04-01T07:24:14;101274.54;;;43.03;9.99
78094;BME280;67327;37.152;-76.406;2023-04-01T07:26:35;101264.12;;;43.05;9.99
78094;BME280;67327;37.152;-76.406;2023-04-01T07:29:01;101266.78;;;42.82;9.98
78094;BME280;67327;37.152;-76.406;2023-04-01T07:31:40;101260.21;;;43.06;9.98
78094;BME280;67327;37.152;-76.406;2023-04-01T07:33:59;101249.89;;;42.83;9.98
78094;BME280;67327;37.152;-76.406;2023-04-01T07:36:22;101250.59;;;43.10;9.98
78094;BME280;67327;37.152;-76.406;2023-04-01T07:38:49;101245.33;;;42.87;9.98
78094;BME280;67327;37.152;-76.406;2023-04-01T07:41:12;101246.87;;;43.11;9.99
78094;BME280;67327;37.152;-76.406;2023-04-01T07:43:42;101246.30;;;42.90;9.99
78094;BME280;67327;37.152;-76.406;2023-04-01T07:46:02;101241.31;;;42.93;9.95
78094;BME280;67327;37.152;-76.406;2023-04-01T07:48:28;101235.98;;;42.71;9.95
78094;BME280;67327;37.152;-76.406;2023-04-01T07:50:53;101230.01;;;42.95;9.95
78094;BME280;67327;37.152;-76.406;2023-04-01T07:53:18;101223.76;;;42.68;9.97
78094;BME280;67327;37.152;-76.406;2023-04-01T07:55:42;101218.11;;;43.16;9.96
78094;BME280;67327;37.152;-76.406;2023-04-01T07:58:09;101212.44;;;42.92;9.97
78094;BME280;67327;37.152;-76.406;2023-04-01T08:00:33;101207.03;;;42.92;9.95
78094;BME280;67327;37.152;-76.406;2023-04-01T08:03:06;101199.93;;;42.92;9.95
78094;BME280;67327;37.152;-76.406;2023-04-01T08:05:23;101190.12;;;43.16;9.93
78094;BME280;67327;37.152;-76.406;2023-04-01T08:07:48;101180.60;;;43.16;9.95
78094;BME280;67327;37.152;-76.406;2023-04-01T08:10:13;101178.46;;;42.72;9.93
78094;BME280;67327;37.152;-76.406;2023-04-01T08:12:42;101175.08;;;42.98;9.92
78094;BME280;67327;37.152;-76.406;2023-04-01T08:15:09;101156.08;;;42.97;9.91
78094;BME280;67327;37.152;-76.406;2023-04-01T08:17:30;101150.33;;;42.99;9.88
78094;BME280;67327;37.152;-76.406;2023-04-01T08:20:02;101144.70;;;43.24;9.88
78094;BME280;67327;37.152;-76.406;2023-04-01T08:22:16;101130.39;;;43.26;9.86
78094;BME280;67327;37.152;-76.406;2023-04-01T08:24:42;101139.76;;;42.79;9.83
78094;BME280;67327;37.152;-76.406;2023-04-01T08:27:11;101139.58;;;43.27;9.85
78094;BME280;67327;37.152;-76.406;2023-04-01T08:29:34;101132.52;;;43.26;9.84
78094;BME280;67327;37.152;-76.406;2023-04-01T08:31:56;101131.55;;;43.27;9.83
78094;BME280;67327;37.152;-76.406;2023-04-01T08:34:21;101138.29;;;43.25;9.84
78094;BME280;67327;37.152;-76.406;2023-04-01T08:36:47;101096.92;;;42.97;9.85
78094;BME280;67327;37.152;-76.406;2023-04-01T08:39:12;101097.50;;;42.94;9.86
78094;BME280;67327;37.152;-76.406;2023-04-01T08:46:40;101113.04;;;42.72;9.87
78094;BME280;67327;37.152;-76.406;2023-04-01T08:48:58;101126.35;;;42.99;9.87
78094;BME280;67327;37.152;-76.406;2023-04-01T08:51:31;101120.75;;;43.24;9.89
78094;BME280;67327;37.152;-76.406;2023-04-01T08:53:53;101119.85;;;43.20;9.90
78094;BME280;67327;37.152;-76.406;2023-04-01T08:56:13;101121.88;;;42.72;9.87
78094;BME280;67327;37.152;-76.406;2023-04-01T09:01:02;101086.79;;;43.18;9.91
78094;BME280;67327;37.152;-76.406;2023-04-01T09:08:23;101087.77;;;42.99;9.87
78094;BME280;67327;37.152;-76.406;2023-04-01T09:13:15;101095.59;;;42.94;9.90
78094;BME280;67327;37.152;-76.406;2023-04-01T09:20:27;101077.84;;;43.08;9.96
78094;BME280;67327;37.152;-76.406;2023-04-01T09:22:56;101100.32;;;42.82;9.96
78094;BME280;67327;37.152;-76.406;2023-04-01T09:25:19;101089.75;;;43.07;9.98
78094;BME280;67327;37.152;-76.406;2023-04-01T09:27:34;101096.99;;;43.07;10.00
78094;BME280;67327;37.152;-76.406;2023-04-01T09:32:36;101088.34;;;42.56;10.05
78094;BME280;67327;37.152;-76.406;2023-04-01T09:34:58;101078.40;;;42.79;10.02
78094;BME280;67327;37.152;-76.406;2023-04-01T09:37:21;101065.51;;;43.04;10.04
78094;BME280;67327;37.152;-76.406;2023-04-01T09:39:40;101080.56;;;43.04;10.03
78094;BME280;67327;37.152;-76.406;2023-04-01T09:42:16;101071.58;;;43.03;10.06
78094;BME280;67327;37.152;-76.406;2023-04-01T09:44:32;101071.95;;;42.78;10.08
78094;BME280;67327;37.152;-76.406;2023-04-01T09:47:04;101067.87;;;42.80;10.08
78094;BME280;67327;37.152;-76.406;2023-04-01T09:51:53;101058.09;;;43.08;10.04
78094;BME280;67327;37.152;-76.406;2023-04-01T09:54:20;101040.49;;;43.09;10.03
78094;BME280;67327;37.152;-76.406;2023-04-01T09:59:09;101026.35;;;42.86;10.03
78094;BME280;67327;37.152;-76.406;2023-04-01T10:01:34;101019.36;;;43.10;10.02
78094;BME280;67327;37.152;-76.406;2023-04-01T10:04:00;100996.11;;;43.13;9.99
78094;BME280;67327;37.152;-76.406;2023-04-01T10:18:27;100994.78;;;43.11;10.01
78094;BME280;67327;37.152;-76.406;2023-04-01T10:23:17;100968.93;;;42.68;9.99
78094;BME280;67327;37.152;-76.406;2023-04-01T10:28:11;100959.76;;;43.15;10.03
78094;BME280;67327;37.152;-76.406;2023-04-01T10:42:44;100935.58;;;43.13;9.94
78094;BME280;67327;37.152;-76.406;2023-04-01T10:52:24;100962.81;;;43.16;9.96
78094;BME280;67327;37.152;-76.406;2023-04-01T10:54:42;100955.04;;;42.94;9.95
78094;BME280;67327;37.152;-76.406;2023-04-01T10:57:07;100961.78;;;43.43;9.95
78094;BME280;67327;37.152;-76.406;2023-04-01T10:59:46;100956.23;;;42.94;9.94
78094;BME280;67327;37.152;-76.406;2023-04-01T11:11:47;100924.16;;;43.19;9.89
78094;BME280;67327;37.152;-76.406;2023-04-01T11:23:44;100900.78;;;43.19;10.01
78094;BME280;67327;37.152;-76.406;2023-04-01T11:26:09;100906.59;;;43.15;10.04
78094;BME280;67327;37.152;-76.406;2023-04-01T11:28:42;100899.57;;;42.87;10.04
78094;BME280;67327;37.152;-76.406;2023-04-01T11:31:05;100884.49;;;43.10;10.04
78094;BME280;67327;37.152;-76.406;2023-04-01T11:33:20;100892.72;;;43.09;10.04
78094;BME280;67327;37.152;-76.406;2023-04-01T11:35:52;100892.39;;;42.86;10.04
78094;BME280;67327;37.152;-76.406;2023-04-01T11:38:20;100891.19;;;42.89;10.02
78094;BME280;67327;37.152;-76.406;2023-04-01T11:40:37;100874.93;;;43.11;10.02
78094;BME280;67327;37.152;-76.406;2023-04-01T11:43:04;100866.87;;;42.61;10.01
78094;BME280;67327;37.152;-76.406;2023-04-01T11:45:32;100848.05;;;43.05;10.04
78094;BME280;67327;37.152;-76.406;2023-04-01T11:47:56;100845.01;;;42.56;10.03
78094;BME280;67327;37.152;-76.406;2023-04-01T11:50:21;100842.84;;;43.03;10.02
78094;BME280;67327;37.152;-76.406;2023-04-01T11:52:52;100840.33;;;42.79;10.01
78094;BME280;67327;37.152;-76.406;2023-04-01T11:55:18;100824.68;;;42.80;9.97
78094;BME280;67327;37.152;-76.406;2023-04-01T11:57:38;100827.04;;;43.08;9.94
78094;BME280;67327;37.152;-76.406;2023-04-01T12:02:29;100822.18;;;43.14;9.93
78094;BME280;67327;37.152;-76.406;2023-04-01T12:04:51;100828.47;;;42.93;9.91
78094;BME280;67327;37.152;-76.406;2023-04-01T12:07:17;100814.57;;;43.17;9.90
78094;BME280;67327;37.152;-76.406;2023-04-01T12:09:40;100824.90;;;42.96;9.88
78094;BME280;67327;37.152;-76.406;2023-04-01T12:12:10;100820.82;;;43.21;9.87
78094;BME280;67327;37.152;-76.406;2023-04-01T12:14:30;100808.53;;;43.21;9.87
78094;BME280;67327;37.152;-76.406;2023-04-01T12:16:57;100811.89;;;43.21;9.86
78094;BME280;67327;37.152;-76.406;2023-04-01T12:19:21;100830.93;;;42.96;9.86
78094;BME280;67327;37.152;-76.406;2023-04-01T12:21:44;100824.64;;;43.14;9.87
78094;BME280;67327;37.152;-76.406;2023-04-01T12:24:23;100825.87;;;43.09;9.89
78094;BME280;67327;37.152;-76.406;2023-04-01T12:26:37;100816.19;;;43.07;9.90
78094;BME280;67327;37.152;-76.406;2023-04-01T12:29:07;100810.23;;;42.84;9.86
78094;BME280;67327;37.152;-76.406;2023-04-01T12:31:31;100798.84;;;43.09;9.89
78094;BME280;67327;37.152;-76.406;2023-04-01T12:33:52;100795.49;;;42.89;9.87
78094;BME280;67327;37.152;-76.406;2023-04-01T12:36:18;100796.38;;;43.12;9.87
78094;BME280;67327;37.152;-76.406;2023-04-01T12:38:43;100804.08;;;42.86;9.87
78094;BME280;67327;37.152;-76.406;2023-04-01T12:41:09;100806.39;;;42.85;9.88
78094;BME280;67327;37.152;-76.406;2023-04-01T12:45:54;100800.22;;;43.07;9.88
78094;BME280;67327;37.152;-76.406;2023-04-01T12:50:55;100790.45;;;43.03;9.90
78094;BME280;67327;37.152;-76.406;2023-04-01T12:53:22;100799.49;;;42.99;9.92
78094;BME280;67327;37.152;-76.406;2023-04-01T12:55:38;100805.07;;;42.97;9.94
78094;BME280;67327;37.152;-76.406;2023-04-01T13:02:53;100797.20;;;42.65;9.99
78094;BME280;67327;37.152;-76.406;2023-04-01T13:07:46;100780.32;;;42.86;10.01
78094;BME280;67327;37.152;-76.406;2023-04-01T13:10:09;100789.42;;;42.85;10.01
78094;BME280;67327;37.152;-76.406;2023-04-01T13:12:39;100783.65;;;42.83;10.03
78094;BME280;67327;37.152;-76.406;2023-04-01T13:17:25;100777.97;;;42.81;10.03
78094;BME280;67327;37.152;-76.406;2023-04-01T13:19:47;100768.79;;;42.81;10.05
78094;BME280;67327;37.152;-76.406;2023-04-01T13:22:12;100755.21;;;42.81;10.05
78094;BME280;67327;37.152;-76.406;2023-04-01T13:24:39;100763.78;;;42.83;10.05
78094;BME280;67327;37.152;-76.406;2023-04-01T13:27:03;100755.66;;;42.88;10.02
78094;BME280;67327;37.152;-76.406;2023-04-01T13:29:25;100743.88;;;42.91;10.01
78094;BME280;67327;37.152;-76.406;2023-04-01T13:31:58;100738.23;;;42.94;10.01
78094;BME280;67327;37.152;-76.406;2023-04-01T13:34:23;100735.84;;;42.77;9.97
78094;BME280;67327;37.152;-76.406;2023-04-01T13:36:45;100743.75;;;43.01;9.97
78094;BME280;67327;37.152;-76.406;2023-04-01T13:39:15;100767.89;;;43.01;9.98
78094;BME280;67327;37.152;-76.406;2023-04-01T13:41:40;100748.24;;;43.03;9.97
78094;BME280;67327;37.152;-76.406;2023-04-01T13:43:58;100749.18;;;43.03;9.97
78094;BME280;67327;37.152;-76.406;2023-04-01T13:48:55;100743.92;;;42.98;10.00
78094;BME280;67327;37.152;-76.406;2023-04-01T13:51:22;100721.25;;;43.00;9.99
78094;BME280;67327;37.152;-76.406;2023-04-01T13:56:08;100725.09;;;43.04;9.98
78094;BME280;67327;37.152;-76.406;2023-04-01T13:58:38;100726.97;;;43.08;9.97
78094;BME280;67327;37.152;-76.406;2023-04-01T14:00:56;100714.24;;;43.11;9.95
78094;BME280;67327;37.152;-76.406;2023-04-01T14:03:24;100696.83;;;43.42;9.96
78094;BME280;67327;37.152;-76.406;2023-04-01T14:05:46;100704.56;;;43.24;9.91
78094;BME280;67327;37.152;-76.406;2023-04-01T14:08:11;100685.19;;;43.28;9.90
78094;BME280;67327;37.152;-76.406;2023-04-01T14:10:34;100688.95;;;43.31;9.89
78094;BME280;67327;37.152;-76.406;2023-04-01T14:12:59;100681.48;;;43.11;9.89
78094;BME280;67327;37.152;-76.406;2023-04-01T14:15:31;100688.14;;;43.38;9.89